Station: Shannon  

  Atmospheric Gas Attenuation - ITU Rec 676-11   ----------------- dB/100km -----------------
Date Time Temp RH % AH g/m3 Dew Point Wind Direction Speed kph Gust kph Barometer mB Rainfall Since 9am 24GHz 47GHz 76GHz 122GHz 134GHz 241GHz
08/05 09:30 14.4 79 9.77 10.8 13 17 1013.1 0 22.1 27.6 44.3 116.3 113.3 390.6
08/05 09:20 13.8 80 9.53 10.4 17 24 1013.1 0 21.6 27.4 43.6 114.6 110.9 382.2
08/05 09:10 13.3 81 9.36 10.1 13 15 1013.1 0 21.2 27.3 43.2 113.4 109.3 376.5
08/05 09:00 12.8 82 9.19 9.8 11 19 1013.1 0 20.9 27.2 42.7 112.3 107.7 370.7
08/05 08:50 12.3 84 9.12 9.7 11 15 1013.1 0 20.8 27.2 42.7 112.2 107.4 369.8
08/05 08:40 11.7 84 8.79 9.1 15 20 1013.1 0 20.1 26.8 41.6 109.4 103.7 356.7
08/05 08:30 11.4 86 8.83 9.1 17 24 1013.1 0 20.2 27.0 42.0 110.2 104.6 360.0
08/05 08:20 11 87 8.71 8.9 17 20 1013.1 0 20.0 26.9 41.7 109.5 103.5 356.1
08/05 08:10 10.8 89 8.8 9.1 11 13 1013.1 0 20.2 27.1 42.2 110.8 105.1 361.4
08/05 08:00 10.5 90 8.73 8.9 13 20 1013.1 0 20.0 27.1 42.0 110.4 104.5 359.4
08/05 07:50 10.1 91 8.61 8.7 19 22 1013.1 0 19.8 27.0 41.7 109.6 103.4 355.4
08/05 07:40 9.8 93 8.63 8.7 9 13 1013.1 0 19.9 27.1 42.0 110.3 104.0 357.7
08/05 07:30 9.5 94 8.56 8.6 13 17 1013.1 0 19.7 27.1 41.9 109.9 103.5 355.7
08/05 07:20 9.2 95 8.49 8.4 15 19 1013.1 0 19.6 27.1 41.7 109.5 102.9 353.6
08/05 07:10 9.2 95 8.49 8.4 13 19 1013.1 0 19.6 27.1 41.7 109.5 102.9 353.6
08/05 07:00 9 95 8.38 8.2 13 20 1013.1 0 19.4 27.0 41.3 108.5 101.6 349.1
08/05 06:50 9.1 95 8.43 8.3 13 19 1013.1 0 19.5 27.0 41.5 109.0 102.2 351.1
08/05 06:40 9.1 95 8.43 8.3 11 15 1013.1 0 19.5 27.0 41.5 109.0 102.2 351.1
08/05 06:30 9.1 95 8.43 8.3 13 17 1013.1 0 19.5 27.0 41.5 109.0 102.2 351.1
08/05 06:20 9.2 96 8.58 8.6 13 15 1013.1 0 19.8 27.2 42.1 110.5 104.2 358.0
08/05 06:10 9.2 96 8.58 8.6 13 15 1013.1 0 19.8 27.2 42.1 110.5 104.2 358.0
08/05 06:00 9.2 96 8.58 8.6 11 15 1013.1 0 19.8 27.2 42.1 110.5 104.2 358.0
08/05 05:50 9.3 96 8.63 8.7 9 13 1013.1 0 19.9 27.3 42.3 111.0 104.7 360.0
08/05 05:40 9.4 96 8.69 8.8 11 13 1013.1 0 20.0 27.4 42.5 111.5 105.4 362.5
08/05 05:30 9.4 96 8.69 8.8 11 19 1013.1 0 20.0 27.4 42.5 111.5 105.4 362.5
08/05 05:20 9.4 97 8.78 8.9 11 13 1013.1 0 20.2 27.5 42.8 112.5 106.7 367.0
08/05 05:10 9.3 96 8.63 8.7 9 11 1013.1 0 19.9 27.3 42.3 111.0 104.7 360.0
08/05 05:00 9.4 97 8.78 8.9 11 13 1013.1 0 20.2 27.5 42.8 112.5 106.7 367.0
08/05 04:50 9.4 97 8.78 8.9 9 11 1013.1 0 20.2 27.5 42.8 112.5 106.7 367.0
08/05 04:40 9.4 97 8.78 8.9 9 11 1013.1 0 20.2 27.5 42.8 112.5 106.7 367.0
08/05 04:30 9.4 97 8.78 8.9 9 13 1013.1 0 20.2 27.5 42.8 112.5 106.7 367.0
08/05 04:20 9.5 96 8.74 8.9 9 9 1013.1 0 20.1 27.4 42.6 111.9 106.0 364.5
08/05 04:10 9.5 96 8.74 8.9 9 11 1013.1 0 20.1 27.4 42.6 111.9 106.0 364.5
08/05 04:00 9.7 96 8.85 9.1 6 9 1013.1 0 20.3 27.5 43.0 112.9 107.3 369.0
08/05 03:50 9.9 96 8.97 9.3 6 7 1013.1 0 20.6 27.7 43.4 114.0 108.7 374.0
08/05 03:40 9.8 96 8.91 9.2 7 9 1013.1 0 20.5 27.6 43.2 113.5 108.0 371.5
08/05 03:30 10 95 8.93 9.2 7 11 1013.1 0 20.5 27.6 43.2 113.4 108.0 371.5
08/05 03:20 10.1 95 8.99 9.3 7 9 1013.1 0 20.6 27.7 43.4 113.9 108.7 374.0
08/05 03:10 10.3 95 9.1 9.5 9 9 1013.1 0 20.8 27.8 43.7 114.9 110.0 378.4
08/05 03:00 10.4 95 9.16 9.6 9 15 1013.1 0 21.0 27.9 43.9 115.4 110.7 380.9
08/05 02:50 10.5 95 9.22 9.7 11 13 1013.1 0 21.1 27.9 44.1 116.0 111.4 383.4
08/05 02:40 10.5 95 9.22 9.7 7 9 1013.1 0 21.1 27.9 44.1 116.0 111.4 383.4
08/05 02:30 10.7 94 9.23 9.8 11 19 1013.1 0 21.1 27.9 44.1 115.8 111.2 382.9
08/05 02:20 10.9 94 9.35 10 11 15 1013.1 0 21.3 28.0 44.5 116.9 112.6 387.8
08/05 02:10 11 94 9.41 10.1 9 13 1013.1 0 21.5 28.1 44.7 117.4 113.3 390.3
08/05 02:00 11.2 94 9.53 10.3 13 19 1013.1 0 21.7 28.2 45.1 118.5 114.7 395.2
08/05 01:50 11.2 93 9.43 10.1 11 13 1013.1 0 21.5 28.1 44.6 117.3 113.3 390.3
08/05 01:40 11.3 93 9.49 10.2 11 17 1013.1 0 21.6 28.1 44.8 117.9 114.0 392.7
08/05 01:30 11.4 93 9.55 10.3 17 24 1013.1 0 21.8 28.2 45.0 118.4 114.7 395.2
08/05 01:20 11.4 93 9.55 10.3 19 20 1013.1 0 21.8 28.2 45.0 118.4 114.7 395.2
08/05 01:10 11.5 93 9.61 10.4 17 19 1013.1 0 21.9 28.3 45.2 118.9 115.4 397.6
08/05 01:00 11.6 93 9.67 10.5 15 20 1013.1 0 22.0 28.4 45.4 119.5 116.1 400.1
08/05 00:50 11.6 93 9.67 10.5 15 19 1013.1 0 22.0 28.4 45.4 119.5 116.1 400.1
08/05 00:40 11.8 92 9.68 10.5 15 19 1013.1 0 22.0 28.3 45.4 119.3 115.9 399.5
08/05 00:30 11.9 92 9.74 10.6 17 24 1013.1 0 22.1 28.4 45.6 119.8 116.6 402.0
08/05 00:20 12 92 9.81 10.7 20 24 1013.1 0 22.3 28.5 45.8 120.5 117.5 404.9
08/05 00:10 11.9 91 9.64 10.5 17 20 1013.1 0 21.9 28.2 45.1 118.7 115.2 397.0
08/05 00:00 12 92 9.81 10.7 17 24 1013.1 0 22.3 28.5 45.8 120.5 117.5 404.9
07/05 23:50 12.1 92 9.87 10.8 15 17 1013.1 0 22.4 28.5 46.0 121.0 118.2 407.3
07/05 23:40 12.1 91 9.76 10.7 11 15 1013.1 0 22.2 28.3 45.5 119.7 116.6 401.9
07/05 23:30 12.2 91 9.82 10.8 17 32 1013.1 0 22.3 28.4 45.7 120.3 117.3 404.4
07/05 23:20 12.2 90 9.71 10.6 15 17 1013.1 0 22.1 28.2 45.3 119.0 115.7 398.9
07/05 23:10 12.4 90 9.83 10.8 17 20 1013.1 0 22.3 28.4 45.7 120.1 117.1 403.8
07/05 23:00 12.5 90 9.9 10.9 13 20 1013.1 0 22.4 28.5 45.9 120.7 118.0 406.7
07/05 22:50 12.5 89 9.79 10.7 11 15 1013.1 0 22.2 28.3 45.4 119.5 116.4 401.3
07/05 22:40 12.7 90 10.02 11.1 15 22 1013.1 0 22.7 28.6 46.3 121.8 119.3 411.6
07/05 22:30 12.7 90 10.02 11.1 13 19 1013.1 0 22.7 28.6 46.3 121.8 119.3 411.6
07/05 22:20 12.7 90 10.02 11.1 15 17 1013.1 0 22.7 28.6 46.3 121.8 119.3 411.6
07/05 22:10 12.8 90 10.08 11.2 13 15 1013.1 0 22.8 28.7 46.5 122.3 120.0 414.0
07/05 22:00 13 90 10.21 11.4 13 20 1013.1 0 23.1 28.8 46.9 123.5 121.5 419.3
07/05 21:50 13 91 10.32 11.6 11 13 1013.1 0 23.3 29.0 47.4 124.7 123.1 424.8
07/05 21:40 13.1 90 10.27 11.5 11 13 1013.1 0 23.2 28.9 47.1 124.0 122.2 421.8
07/05 21:30 13.4 90 10.46 11.8 13 20 1013.1 0 23.6 29.1 47.8 125.7 124.4 429.5
07/05 21:20 13.5 90 10.53 11.9 11 15 1013.1 0 23.7 29.2 48.0 126.3 125.3 432.4
07/05 21:10 13.6 91 10.71 12.2 15 17 1013.1 0 24.1 29.5 48.7 128.3 127.7 440.8
07/05 21:00 13.6 91 10.71 12.2 15 24 1013.1 0 24.1 29.5 48.7 128.3 127.7 440.8
07/05 20:50 13.6 91 10.71 12.2 13 19 1013.1 0 24.1 29.5 48.7 128.3 127.7 440.8
07/05 20:40 13.8 91 10.84 12.4 11 15 1013.1 0 24.4 29.7 49.2 129.4 129.2 446.1
07/05 20:30 13.9 92 11.03 12.6 13 20 1013.1 0 24.8 30.0 49.9 131.5 131.7 455.1
07/05 20:20 13.9 92 11.03 12.6 13 19 1013.1 0 24.8 30.0 49.9 131.5 131.7 455.1
07/05 20:10 13.8 91 10.84 12.4 9 15 1013.1 0 24.4 29.7 49.2 129.4 129.2 446.1
07/05 20:00 14.1 91 11.04 12.7 11 19 1013.1 0 24.8 29.9 49.8 131.3 131.5 454.4
07/05 19:50 14.2 91 11.11 12.8 7 11 1013.1 0 25.0 30.0 50.1 131.9 132.4 457.3
07/05 19:40 14 90 10.86 12.4 9 11 1013.1 0 24.4 29.6 49.1 129.3 129.1 446.0
07/05 19:30 14 89 10.74 12.2 9 15 1013.1 0 24.2 29.4 48.6 127.9 127.4 440.0
07/05 19:20 14 88 10.61 12 7 9 1013.1 0 23.9 29.2 48.0 126.5 125.6 433.6
07/05 19:10 14 88 10.61 12 7 9 1013.1 0 23.9 29.2 48.0 126.5 125.6 433.6
07/05 19:00 14.1 87 10.56 12 7 15 1013.1 0 23.8 29.1 47.8 125.7 124.7 430.6
07/05 18:50 14.1 86 10.44 11.8 7 9 1013.1 0 23.5 28.9 47.3 124.3 123.0 424.7
07/05 18:40 14.4 85 10.51 11.9 11 13 1013.1 0 23.7 28.9 47.4 124.7 123.5 426.4
07/05 18:30 14.7 82 10.32 11.7 11 15 1013.1 0 23.2 28.5 46.4 122.0 120.4 415.6
07/05 18:20 14.7 81 10.2 11.5 11 15 1013.1 0 23.0 28.3 45.9 120.7 118.7 409.7
07/05 18:10 14.7 78 9.82 10.9 11 13 1013.1 0 22.2 27.6 44.3 116.5 113.5 391.5
07/05 18:00 14.6 76 9.51 10.4 7 11 1013.1 0 21.5 27.1 43.1 113.2 109.5 377.3
07/05 17:50 14.9 73 9.3 10.1 7 9 1013.1 0 21.0 26.7 42.0 110.5 106.2 366.0
07/05 17:40 15.6 69 9.18 9.9 7 7 1013.1 0 20.7 26.3 41.2 108.2 103.7 357.2
07/05 17:30 15.7 68 9.1 9.8 7 9 1013.1 0 20.6 26.1 40.8 107.2 102.5 353.1
07/05 17:19 16.2 66 9.1 9.8 7 9 1013.1 0 20.5 26.0 40.6 106.5 101.9 350.9
07/05 17:10 16.6 65 9.18 10 7 9 1013.1 0 20.7 26.0 40.7 106.8 102.4 352.7
07/05 17:00 16.9 63 9.06 9.8 7 11 1013.1 0 20.4 25.7 40.1 105.2 100.4 346.0

Last Refresh: 08-May-2026 11:05:10

Bureau of Meteorology